createdAt,value
2022-08-06T00:00:07.218Z,97381.59
2022-08-06T00:02:35.637Z,97382.78
2022-08-06T00:05:06.501Z,97370.56
2022-08-06T00:07:44.787Z,97371.56
2022-08-06T00:10:16.790Z,97381.97
2022-08-06T00:12:45.007Z,97383.13
2022-08-06T00:15:14.568Z,97397.00
2022-08-06T00:17:45.870Z,97408.44
2022-08-06T00:20:25.312Z,97409.41
2022-08-06T00:22:59.860Z,97418.63
2022-08-06T00:25:27.319Z,97423.78
2022-08-06T00:27:54.899Z,97433.88
2022-08-06T00:30:22.398Z,97442.56
2022-08-06T00:32:52.035Z,97446.28
2022-08-06T00:35:23.768Z,97448.25
2022-08-06T00:37:58.461Z,97449.97
2022-08-06T00:40:29.594Z,97459.69
2022-08-06T00:43:02.486Z,97468.19
2022-08-06T00:45:37.946Z,97473.56
2022-08-06T00:48:09.095Z,97465.84
2022-08-06T00:50:55.996Z,97465.31
2022-08-06T00:53:22.778Z,97468.28
2022-08-06T00:55:59.653Z,97461.94
2022-08-06T00:58:28.481Z,97455.88
2022-08-06T01:01:07.661Z,97460.59
2022-08-06T01:03:50.827Z,97471.06
2022-08-06T01:06:57.542Z,97482.28
2022-08-06T01:09:05.302Z,97485.97
2022-08-06T01:11:34.862Z,97490.88
2022-08-06T01:14:05.913Z,97487.03
2022-08-06T01:16:46.283Z,97491.69
2022-08-06T01:21:20.135Z,97491.72
2022-08-06T01:22:41.325Z,97497.22
2022-08-06T01:25:47.622Z,97506.41
2022-08-06T01:28:59.688Z,97498.19
2022-08-06T01:31:52.406Z,97490.16
2022-08-06T01:34:31.415Z,97494.50
2022-08-06T01:37:22.588Z,97499.84
2022-08-06T01:40:02.609Z,97498.00
2022-08-06T01:42:35.711Z,97493.81
2022-08-06T01:45:05.854Z,97496.19
2022-08-06T01:47:52.388Z,97492.50
2022-08-06T01:50:28.068Z,97476.44
2022-08-06T01:52:59.814Z,97475.25
2022-08-06T01:55:42.234Z,97480.31
2022-08-06T01:58:29.281Z,97481.94
2022-08-06T02:01:01.160Z,97475.97
2022-08-06T02:03:38.851Z,97475.97
2022-08-06T02:06:23.376Z,97472.13
2022-08-06T02:09:21.916Z,97472.63
2022-08-06T02:12:02.546Z,97468.63
2022-08-06T02:14:38.479Z,97460.56
2022-08-06T02:17:13.477Z,97459.06
2022-08-06T02:19:59.761Z,97457.69
2022-08-06T02:22:38.057Z,97450.34
2022-08-06T02:25:14.387Z,97447.47
2022-08-06T02:27:53.389Z,97445.00
2022-08-06T02:30:34.836Z,97448.47
2022-08-06T02:33:05.282Z,97442.13
2022-08-06T02:35:37.551Z,97442.78
2022-08-06T02:38:28.509Z,97437.66
2022-08-06T02:41:03.232Z,97430.25
2022-08-06T02:43:36.304Z,97420.03
2022-08-06T02:46:11.799Z,97427.72
2022-08-06T02:48:47.342Z,97419.19
2022-08-06T02:51:43.834Z,97418.22
2022-08-06T02:54:15.226Z,97423.22
2022-08-06T02:56:45.696Z,97417.56
2022-08-06T02:59:21.404Z,97417.75
2022-08-06T03:01:57.718Z,97427.59
2022-08-06T03:04:32.302Z,97420.09
2022-08-06T03:07:06.593Z,97413.38
2022-08-06T03:09:53.070Z,97424.44
2022-08-06T03:12:29.927Z,97418.91
2022-08-06T03:15:06.146Z,97422.41
2022-08-06T03:17:38.624Z,97430.78
2022-08-06T03:20:08.610Z,97429.16
2022-08-06T03:22:45.158Z,97432.31
2022-08-06T03:25:15.273Z,97431.97
2022-08-06T03:27:45.167Z,97429.44
2022-08-06T03:30:31.371Z,97437.47
2022-08-06T03:33:28.727Z,97444.00
2022-08-06T03:36:01.032Z,97438.81
2022-08-06T03:38:33.647Z,97440.00
2022-08-06T03:41:01.818Z,97446.34
2022-08-06T03:43:56.234Z,97449.88
2022-08-06T03:46:22.478Z,97450.00
2022-08-06T03:48:50.991Z,97455.00
2022-08-06T03:51:51.079Z,97460.00
2022-08-06T03:54:10.256Z,97455.97
2022-08-06T03:56:46.415Z,97463.16
2022-08-06T03:59:18.262Z,97463.47
2022-08-06T04:01:50.294Z,97460.47
2022-08-06T04:04:26.001Z,97457.94
2022-08-06T04:06:56.325Z,97460.47
2022-08-06T04:09:57.772Z,97465.81
2022-08-06T04:12:42.776Z,97460.31
2022-08-06T04:15:00.356Z,97468.34
2022-08-06T04:17:32.948Z,97473.00
2022-08-06T04:20:01.038Z,97479.88
2022-08-06T04:23:05.484Z,97479.47
2022-08-06T04:25:14.856Z,97480.84
2022-08-06T04:27:52.953Z,97491.41
2022-08-06T04:30:29.053Z,97484.31
2022-08-06T04:33:00.305Z,97494.03
2022-08-06T04:36:06.319Z,97486.03
2022-08-06T04:38:27.989Z,97489.75
2022-08-06T04:40:58.245Z,97501.53
2022-08-06T04:43:38.273Z,97502.59
2022-08-06T04:46:20.554Z,97497.28
2022-08-06T04:48:50.900Z,97504.78
2022-08-06T04:52:37.008Z,97498.28
2022-08-06T04:54:12.374Z,97499.94
2022-08-06T04:56:48.421Z,97499.72
2022-08-06T04:59:17.540Z,97505.72
2022-08-06T05:01:57.423Z,97496.34
2022-08-06T05:04:32.473Z,97504.88
2022-08-06T05:07:13.222Z,97514.09
2022-08-06T05:09:43.910Z,97515.97
2022-08-06T05:12:33.950Z,97517.28
2022-08-06T05:15:11.787Z,97518.81
2022-08-06T05:17:48.510Z,97521.31
2022-08-06T05:20:27.937Z,97527.03
2022-08-06T05:23:09.111Z,97521.66
2022-08-06T05:25:52.564Z,97532.50
2022-08-06T05:28:22.827Z,97526.06
2022-08-06T05:30:55.513Z,97528.00
2022-08-06T05:33:30.275Z,97531.09
2022-08-06T05:36:01.660Z,97529.88
2022-08-06T05:38:37.497Z,97530.34
2022-08-06T05:41:08.744Z,97527.63
2022-08-06T05:43:57.837Z,97521.56
2022-08-06T05:46:30.046Z,97513.28
2022-08-06T05:49:17.059Z,97525.03
2022-08-06T05:52:14.545Z,97532.94
2022-08-06T05:54:56.398Z,97528.66
2022-08-06T05:57:33.498Z,97535.41
2022-08-06T06:00:31.575Z,97529.88
2022-08-06T06:03:02.420Z,97533.88
2022-08-06T06:06:07.100Z,97542.94
2022-08-06T06:08:38.050Z,97540.41
2022-08-06T06:11:10.021Z,97552.94
2022-08-06T06:13:39.846Z,97559.22
2022-08-06T06:16:22.258Z,97557.22
2022-08-06T06:19:24.921Z,97566.06
2022-08-06T06:22:21.689Z,97561.84
2022-08-06T06:25:00.639Z,97561.91
2022-08-06T06:27:51.958Z,97562.22
2022-08-06T06:30:53.007Z,97567.44
2022-08-06T06:34:02.475Z,97566.53
2022-08-06T06:36:47.478Z,97577.09
2022-08-06T06:39:59.102Z,97578.44
2022-08-06T06:42:35.837Z,97585.03
2022-08-06T06:46:10.074Z,97598.91
2022-08-06T06:48:32.947Z,97609.63
2022-08-06T06:51:04.296Z,97606.41
2022-08-06T06:54:09.193Z,97605.34
2022-08-06T06:56:32.508Z,97606.53
2022-08-06T06:59:05.628Z,97618.19
2022-08-06T07:01:54.345Z,97615.78
2022-08-06T07:04:26.971Z,97629.25
2022-08-06T07:06:59.898Z,97623.91
2022-08-06T07:09:40.433Z,97620.97
2022-08-06T07:12:19.413Z,97628.53
2022-08-06T07:15:00.539Z,97627.19
2022-08-06T07:17:46.127Z,97631.78
2022-08-06T07:20:26.257Z,97634.22
2022-08-06T07:24:04.503Z,97643.81
2022-08-06T07:25:54.529Z,97638.13
2022-08-06T07:28:27.917Z,97647.56
2022-08-06T07:30:57.855Z,97641.34
2022-08-06T07:34:01.028Z,97636.47
2022-08-06T07:36:21.808Z,97646.72
2022-08-06T07:38:59.822Z,97642.91
2022-08-06T07:41:31.505Z,97648.03
2022-08-06T07:44:18.660Z,97652.91
2022-08-06T07:46:52.647Z,97655.34
2022-08-06T07:49:31.776Z,97662.66
2022-08-06T07:52:26.673Z,97659.69
2022-08-06T07:54:55.296Z,97666.94
2022-08-06T07:57:25.549Z,97669.53
2022-08-06T07:59:55.618Z,97673.28
2022-08-06T08:02:29.768Z,97674.16
2022-08-06T08:05:16.695Z,97682.09
2022-08-06T08:07:57.409Z,97690.78
2022-08-06T08:10:29.080Z,97698.44
2022-08-06T08:12:57.914Z,97698.22
2022-08-06T08:15:32.382Z,97697.25
2022-08-06T08:18:01.420Z,97696.78
2022-08-06T08:20:34.433Z,97697.06
2022-08-06T08:23:33.229Z,97701.84
2022-08-06T08:25:58.673Z,97699.81
2022-08-06T08:28:25.496Z,97703.75
2022-08-06T08:30:52.102Z,97710.16
2022-08-06T08:33:20.638Z,97710.41
2022-08-06T08:35:59.870Z,97715.31
2022-08-06T08:38:32.306Z,97712.16
2022-08-06T08:41:02.337Z,97712.63
2022-08-06T08:43:58.971Z,97714.50
2022-08-06T08:46:30.867Z,97710.69
2022-08-06T08:49:01.361Z,97706.09
2022-08-06T08:51:28.907Z,97721.94
2022-08-06T08:53:59.374Z,97718.44
2022-08-06T08:57:07.945Z,97720.25
2022-08-06T08:59:59.302Z,97721.75
2022-08-06T09:02:01.020Z,97735.69
2022-08-06T09:04:28.214Z,97736.63
2022-08-06T09:06:56.360Z,97736.78
2022-08-06T09:09:30.336Z,97739.47
2022-08-06T09:12:04.706Z,97744.06
2022-08-06T09:14:34.216Z,97738.81
2022-08-06T09:17:10.503Z,97742.31
2022-08-06T09:19:41.760Z,97745.91
2022-08-06T09:22:09.643Z,97748.66
2022-08-06T09:24:39.367Z,97748.88
2022-08-06T09:27:32.620Z,97752.56
2022-08-06T09:30:04.034Z,97752.44
2022-08-06T09:32:56.792Z,97753.47
2022-08-06T09:35:43.678Z,97752.72
2022-08-06T09:38:12.727Z,97754.53
2022-08-06T09:41:14.901Z,97755.97
2022-08-06T09:44:03.427Z,97758.97
2022-08-06T09:46:56.510Z,97759.22
2022-08-06T09:49:48.817Z,97768.72
2022-08-06T09:52:18.029Z,97763.59
2022-08-06T09:54:53.468Z,97765.31
2022-08-06T09:57:23.755Z,97765.25
2022-08-06T09:59:51.693Z,97770.59
2022-08-06T10:02:24.052Z,97773.72
2022-08-06T10:05:17.610Z,97781.28
2022-08-06T10:07:47.135Z,97771.72
2022-08-06T10:10:33.960Z,97776.34
2022-08-06T10:13:27.485Z,97778.44
2022-08-06T10:16:28.942Z,97785.25
2022-08-06T10:18:59.942Z,97783.28
2022-08-06T10:21:42.202Z,97784.81
2022-08-06T10:24:25.270Z,97789.19
2022-08-06T10:26:54.013Z,97785.06
2022-08-06T10:29:22.926Z,97795.91
2022-08-06T10:40:07.804Z,97790.09
2022-08-06T10:42:21.946Z,97793.66
2022-08-06T10:44:51.082Z,97800.13
2022-08-06T10:48:58.083Z,97799.91
2022-08-06T10:57:59.289Z,97793.56
2022-08-06T11:00:30.179Z,97799.25
2022-08-06T11:03:58.851Z,97800.63
2022-08-06T11:10:31.678Z,97811.59
2022-08-06T11:56:25.478Z,97795.41
2022-08-06T12:06:31.808Z,97792.94
2022-08-06T12:09:23.246Z,97794.53
2022-08-06T12:12:33.032Z,97792.09
2022-08-06T12:16:00.351Z,97790.09
2022-08-06T12:18:19.236Z,97789.75
2022-08-06T12:20:49.456Z,97789.94
2022-08-06T12:23:54.498Z,97784.88
2022-08-06T12:26:11.657Z,97784.22
2022-08-06T12:28:38.626Z,97792.78
2022-08-06T12:31:34.718Z,97791.22
2022-08-06T12:33:52.457Z,97792.38
2022-08-06T12:36:32.523Z,97793.66
2022-08-06T12:39:04.270Z,97797.59
2022-08-06T12:41:46.627Z,97795.75
2022-08-06T12:44:20.061Z,97798.66
2022-08-06T12:46:47.016Z,97798.41
2022-08-06T12:49:18.298Z,97798.03
2022-08-06T12:54:31.801Z,97794.00
2022-08-06T12:56:58.585Z,97786.59
2022-08-06T12:59:25.279Z,97785.25
2022-08-06T13:02:11.676Z,97778.47
2022-08-06T13:04:50.523Z,97783.38
2022-08-06T13:07:20.489Z,97782.03
2022-08-06T13:10:16.801Z,97781.03
2022-08-06T13:14:02.171Z,97777.78
2022-08-06T13:15:25.647Z,97781.66
2022-08-06T13:18:40.822Z,97782.13
2022-08-06T13:21:02.902Z,97774.25
2022-08-06T13:23:35.541Z,97773.50
2022-08-06T13:26:25.986Z,97781.69
2022-08-06T13:30:31.380Z,97777.88
2022-08-06T13:32:03.890Z,97774.19
2022-08-06T13:34:59.206Z,97778.97
2022-08-06T13:37:55.706Z,97778.41
2022-08-06T13:40:46.617Z,97781.44
2022-08-06T13:43:39.780Z,97782.81
2022-08-06T13:46:17.424Z,97783.38
2022-08-06T13:48:52.510Z,97779.84
2022-08-06T13:51:22.100Z,97779.47
2022-08-06T13:53:57.049Z,97787.97
2022-08-06T13:56:29.638Z,97780.44
2022-08-06T13:58:59.800Z,97780.44
2022-08-06T14:01:34.796Z,97785.47
2022-08-06T14:04:11.904Z,97787.75
2022-08-06T14:06:41.438Z,97791.75
2022-08-06T14:09:19.567Z,97794.25
2022-08-06T14:12:01.993Z,97793.22
2022-08-06T14:14:30.929Z,97793.13
2022-08-06T14:17:00.106Z,97795.22
2022-08-06T14:20:15.543Z,97791.25
2022-08-06T14:22:14.573Z,97797.16
2022-08-06T14:24:53.060Z,97789.69
2022-08-06T14:27:24.256Z,97779.94
2022-08-06T14:30:25.321Z,97788.63
2022-08-06T14:32:38.860Z,97786.88
2022-08-06T14:35:07.808Z,97791.97
2022-08-06T14:37:49.860Z,97779.84
2022-08-06T14:40:59.485Z,97783.16
2022-08-06T14:43:54.597Z,97781.25
2022-08-06T14:46:26.112Z,97781.50
2022-08-06T14:48:57.111Z,97777.72
2022-08-06T14:51:24.719Z,97781.03
2022-08-06T14:54:11.246Z,97781.44
2022-08-06T14:56:40.759Z,97774.91
2022-08-06T14:59:13.282Z,97787.72
2022-08-06T15:01:40.398Z,97789.66
2022-08-06T15:04:10.903Z,97790.28
2022-08-06T15:06:53.997Z,97777.25
2022-08-06T15:10:04.114Z,97779.13
2022-08-06T15:12:11.610Z,97788.03
2022-08-06T15:14:43.909Z,97783.69
2022-08-06T15:17:30.502Z,97785.81
2022-08-06T15:20:04.949Z,97786.50
2022-08-06T15:22:36.272Z,97782.03
2022-08-06T15:25:09.488Z,97778.22
2022-08-06T15:27:36.489Z,97784.38
2022-08-06T15:30:04.424Z,97780.50
2022-08-06T15:32:32.313Z,97789.34
2022-08-06T15:34:58.816Z,97785.84
2022-08-06T15:37:53.310Z,97777.66
2022-08-06T15:40:12.820Z,97779.88
2022-08-06T15:42:41.747Z,97775.81
2022-08-06T15:45:45.360Z,97774.84
2022-08-06T15:47:59.774Z,97777.13
2022-08-06T15:50:33.274Z,97780.09
2022-08-06T15:53:22.771Z,97780.09
2022-08-06T15:55:50.510Z,97777.44
2022-08-06T15:58:28.740Z,97768.53
2022-08-06T16:01:04.184Z,97772.97
2022-08-06T16:03:56.279Z,97770.44
2022-08-06T16:06:25.958Z,97769.91
2022-08-06T16:09:00.198Z,97769.00
2022-08-06T16:11:27.005Z,97769.09
2022-08-06T16:13:55.152Z,97765.34
2022-08-06T16:16:27.477Z,97766.19
2022-08-06T16:19:03.744Z,97762.91
2022-08-06T16:21:34.080Z,97759.34
2022-08-06T16:24:03.542Z,97765.28
2022-08-06T16:26:42.732Z,97772.00
2022-08-06T16:29:15.646Z,97768.94
2022-08-06T16:31:48.537Z,97767.16
2022-08-06T16:34:25.477Z,97767.28
2022-08-06T16:36:59.630Z,97769.41
2022-08-06T16:39:35.611Z,97769.59
2022-08-06T16:42:05.638Z,97763.63
2022-08-06T16:44:34.724Z,97768.81
2022-08-06T16:47:19.190Z,97775.03
2022-08-06T16:50:17.646Z,97770.25
2022-08-06T16:52:41.683Z,97770.09
2022-08-06T16:55:11.954Z,97767.00
2022-08-06T16:57:39.807Z,97765.22
2022-08-06T17:00:10.256Z,97764.44
2022-08-06T17:02:37.283Z,97755.41
2022-08-06T17:05:17.230Z,97756.59
2022-08-06T17:07:53.785Z,97749.06
2022-08-06T17:10:25.700Z,97750.84
2022-08-06T17:12:57.996Z,97744.28
2022-08-06T17:15:35.991Z,97759.16
2022-08-06T17:18:04.463Z,97753.72
2022-08-06T17:20:31.880Z,97750.88
2022-08-06T17:23:00.021Z,97752.94
2022-08-06T17:25:50.715Z,97744.03
2022-08-06T17:28:15.388Z,97738.25
2022-08-06T17:30:43.225Z,97745.22
2022-08-06T17:33:10.698Z,97746.78
2022-08-06T17:36:29.495Z,97741.56
2022-08-06T17:38:25.106Z,97746.78
2022-08-06T17:40:54.424Z,97741.41
2022-08-06T17:43:54.913Z,97749.03
2022-08-06T17:46:26.390Z,97737.97
2022-08-06T17:48:57.642Z,97736.69
2022-08-06T17:51:33.103Z,97736.13
2022-08-06T17:54:44.348Z,97744.63
2022-08-06T17:56:49.747Z,97743.03
2022-08-06T17:59:21.594Z,97743.72
2022-08-06T18:01:50.562Z,97743.38
2022-08-06T18:04:30.210Z,97752.06
2022-08-06T18:07:10.868Z,97746.91
2022-08-06T18:10:10.717Z,97748.50
2022-08-06T18:12:32.096Z,97749.09
2022-08-06T18:15:00.163Z,97752.47
2022-08-06T18:17:59.286Z,97747.69
2022-08-06T18:20:16.395Z,97750.22
2022-08-06T18:22:45.235Z,97748.94
2022-08-06T18:25:18.724Z,97743.59
2022-08-06T18:27:53.396Z,97742.63
2022-08-06T18:30:46.956Z,97755.13
2022-08-06T18:33:15.034Z,97758.66
2022-08-06T18:35:54.802Z,97761.75
2022-08-06T18:38:31.844Z,97758.91
2022-08-06T18:41:06.138Z,97767.34
2022-08-06T18:43:48.792Z,97759.34
2022-08-06T18:46:56.207Z,97760.88
2022-08-06T18:49:15.467Z,97772.69
2022-08-06T18:51:42.635Z,97767.22
2022-08-06T18:54:14.097Z,97775.44
2022-08-06T18:56:48.855Z,97776.56
2022-08-06T18:59:28.063Z,97777.97
2022-08-06T19:01:58.990Z,97781.94
2022-08-06T19:04:29.015Z,97784.75
2022-08-06T19:07:00.283Z,97786.41
2022-08-06T19:09:33.755Z,97794.28
2022-08-06T19:12:12.073Z,97785.88
2022-08-06T19:14:44.478Z,97792.47
2022-08-06T19:17:22.543Z,97791.22
2022-08-06T19:20:18.694Z,97793.44
2022-08-06T19:22:54.032Z,97793.59
2022-08-06T19:25:41.771Z,97798.19
2022-08-06T19:28:35.079Z,97798.47
2022-08-06T19:31:06.325Z,97800.28
2022-08-06T19:33:34.978Z,97804.66
2022-08-06T19:36:07.231Z,97806.06
2022-08-06T19:38:40.630Z,97805.09
2022-08-06T19:41:09.930Z,97799.88
2022-08-06T19:44:28.026Z,97801.84
2022-08-06T19:46:34.826Z,97808.88
2022-08-06T19:49:06.138Z,97808.28
2022-08-06T19:52:03.931Z,97801.28
2022-08-06T19:54:27.858Z,97800.28
2022-08-06T19:57:02.969Z,97791.16
2022-08-06T20:00:55.325Z,97792.03
2022-08-06T20:02:26.622Z,97790.63
2022-08-06T20:04:56.483Z,97792.88
2022-08-06T20:07:25.952Z,97795.09
2022-08-06T20:09:59.722Z,97785.25
2022-08-06T20:12:33.720Z,97793.16
2022-08-06T20:15:12.482Z,97793.41
2022-08-06T20:17:48.918Z,97798.31
2022-08-06T20:20:28.537Z,97797.91
2022-08-06T20:23:00.004Z,97809.69
2022-08-06T20:25:27.663Z,97802.66
2022-08-06T20:29:08.232Z,97809.69
2022-08-06T20:30:49.444Z,97816.16
2022-08-06T20:33:23.854Z,97810.97
2022-08-06T20:35:57.956Z,97816.84
2022-08-06T20:38:40.655Z,97817.25
2022-08-06T20:41:59.131Z,97817.94
2022-08-06T20:44:06.718Z,97817.13
2022-08-06T20:49:47.701Z,97812.47
2022-08-06T20:52:17.467Z,97808.00
2022-08-06T20:54:51.340Z,97807.84
2022-08-06T20:57:18.509Z,97807.28
2022-08-06T20:59:50.893Z,97802.09
2022-08-06T21:02:25.843Z,97809.50
2022-08-06T21:05:15.804Z,97803.50
2022-08-06T21:07:57.702Z,97805.63
2022-08-06T21:10:30.619Z,97803.66
2022-08-06T21:13:02.777Z,97805.63
2022-08-06T21:15:54.804Z,97804.94
2022-08-06T21:18:24.830Z,97795.66
2022-08-06T21:20:53.782Z,97796.03
2022-08-06T21:23:41.660Z,97793.94
2022-08-06T21:26:11.613Z,97794.63
2022-08-06T21:28:42.427Z,97795.75
2022-08-06T21:31:10.756Z,97800.25
2022-08-06T21:33:42.488Z,97791.97
2022-08-06T21:36:19.343Z,97786.19
2022-08-06T21:38:46.381Z,97784.94
2022-08-06T21:41:56.082Z,97782.25
2022-08-06T21:44:18.065Z,97779.00
2022-08-06T21:46:57.792Z,97781.84
2022-08-06T21:50:01.052Z,97787.75
2022-08-06T21:52:16.198Z,97777.06
2022-08-06T21:54:53.099Z,97782.94
2022-08-06T21:57:21.119Z,97777.63
2022-08-06T21:59:53.288Z,97776.63
2022-08-06T22:02:26.206Z,97778.47
2022-08-06T22:05:00.066Z,97779.84
2022-08-06T22:08:06.595Z,97790.38
2022-08-06T22:10:15.592Z,97784.88
2022-08-06T22:13:13.181Z,97792.03
2022-08-06T22:15:46.061Z,97784.31
2022-08-06T22:18:16.976Z,97781.50
2022-08-06T22:20:45.594Z,97785.16
2022-08-06T22:23:12.579Z,97778.00
2022-08-06T22:25:39.652Z,97779.28
2022-08-06T22:28:08.823Z,97766.66
2022-08-06T22:30:37.545Z,97772.28
2022-08-06T22:33:17.826Z,97763.84
2022-08-06T22:35:57.173Z,97767.09
2022-08-06T22:38:26.060Z,97771.03
2022-08-06T22:40:53.742Z,97769.16
2022-08-06T22:43:29.444Z,97763.97
2022-08-06T22:46:04.754Z,97762.88
2022-08-06T22:48:36.427Z,97758.22
2022-08-06T22:51:05.976Z,97754.69
2022-08-06T22:54:29.629Z,97751.19
2022-08-06T22:56:28.391Z,97750.59
2022-08-06T22:59:06.147Z,97750.06
2022-08-06T23:02:07.780Z,97754.22
2022-08-06T23:04:31.014Z,97753.94
2022-08-06T23:06:57.805Z,97747.41
2022-08-06T23:09:24.538Z,97749.88
2022-08-06T23:11:59.151Z,97751.69
2022-08-06T23:14:32.308Z,97750.44
2022-08-06T23:17:00.950Z,97752.28
2022-08-06T23:19:29.911Z,97744.44
2022-08-06T23:22:04.787Z,97752.53
2022-08-06T23:24:36.811Z,97750.25
2022-08-06T23:27:16.683Z,97753.59
2022-08-06T23:30:09.658Z,97762.84
2022-08-06T23:32:31.201Z,97760.53
2022-08-06T23:34:59.055Z,97753.31
2022-08-06T23:37:31.834Z,97752.06
2022-08-06T23:40:12.422Z,97748.69
2022-08-06T23:42:43.000Z,97748.84
2022-08-06T23:45:10.042Z,97746.47
2022-08-06T23:48:03.176Z,97748.56
2022-08-06T23:50:26.076Z,97744.47
2022-08-06T23:53:05.893Z,97741.53
2022-08-06T23:55:37.226Z,97743.91
2022-08-06T23:58:06.035Z,97732.34
